sensor_id;sensor_type;location;lat;lon;timestamp;P1;durP1;ratioP1;P2;durP2;ratioP2
31716;SDS011;18301;51.076;17.046;2022-08-19T00:00:12;12.68;;;9.48;;
31716;SDS011;18301;51.076;17.046;2022-08-19T00:05:15;11.52;;;8.95;;
31716;SDS011;18301;51.076;17.046;2022-08-19T00:10:18;11.85;;;9.48;;
31716;SDS011;18301;51.076;17.046;2022-08-19T00:15:21;14.13;;;9.32;;
31716;SDS011;18301;51.076;17.046;2022-08-19T00:20:23;14.43;;;9.80;;
31716;SDS011;18301;51.076;17.046;2022-08-19T00:25:25;13.10;;;8.57;;
31716;SDS011;18301;51.076;17.046;2022-08-19T00:30:30;13.48;;;9.90;;
31716;SDS011;18301;51.076;17.046;2022-08-19T00:35:32;13.40;;;9.52;;
31716;SDS011;18301;51.076;17.046;2022-08-19T00:40:34;15.23;;;10.48;;
31716;SDS011;18301;51.076;17.046;2022-08-19T00:45:36;14.40;;;10.57;;
31716;SDS011;18301;51.076;17.046;2022-08-19T00:50:39;12.07;;;10.07;;
31716;SDS011;18301;51.076;17.046;2022-08-19T00:55:53;12.98;;;9.80;;
31716;SDS011;18301;51.076;17.046;2022-08-19T01:00:57;14.35;;;9.80;;
31716;SDS011;18301;51.076;17.046;2022-08-19T01:05:59;12.18;;;10.65;;
31716;SDS011;18301;51.076;17.046;2022-08-19T01:11:01;13.18;;;10.20;;
31716;SDS011;18301;51.076;17.046;2022-08-19T01:16:05;14.45;;;10.85;;
31716;SDS011;18301;51.076;17.046;2022-08-19T01:21:18;11.80;;;10.13;;
31716;SDS011;18301;51.076;17.046;2022-08-19T01:26:31;10.98;;;8.93;;
31716;SDS011;18301;51.076;17.046;2022-08-19T01:31:32;13.35;;;9.85;;
31716;SDS011;18301;51.076;17.046;2022-08-19T01:36:37;16.27;;;10.40;;
31716;SDS011;18301;51.076;17.046;2022-08-19T01:41:43;12.75;;;8.80;;
31716;SDS011;18301;51.076;17.046;2022-08-19T01:46:45;13.10;;;10.20;;
31716;SDS011;18301;51.076;17.046;2022-08-19T01:51:49;10.93;;;9.50;;
31716;SDS011;18301;51.076;17.046;2022-08-19T01:56:51;12.05;;;9.32;;
31716;SDS011;18301;51.076;17.046;2022-08-19T02:01:56;14.48;;;10.10;;
31716;SDS011;18301;51.076;17.046;2022-08-19T02:06:57;12.13;;;9.75;;
31716;SDS011;18301;51.076;17.046;2022-08-19T02:11:59;13.40;;;8.50;;
31716;SDS011;18301;51.076;17.046;2022-08-19T02:17:02;14.30;;;10.23;;
31716;SDS011;18301;51.076;17.046;2022-08-19T02:22:04;13.50;;;9.82;;
31716;SDS011;18301;51.076;17.046;2022-08-19T02:27:06;14.20;;;10.07;;
31716;SDS011;18301;51.076;17.046;2022-08-19T02:32:07;13.15;;;9.65;;
31716;SDS011;18301;51.076;17.046;2022-08-19T02:37:09;13.50;;;9.75;;
31716;SDS011;18301;51.076;17.046;2022-08-19T02:42:35;11.82;;;9.90;;
31716;SDS011;18301;51.076;17.046;2022-08-19T02:47:37;15.00;;;10.63;;
31716;SDS011;18301;51.076;17.046;2022-08-19T02:52:38;12.18;;;9.90;;
31716;SDS011;18301;51.076;17.046;2022-08-19T02:57:40;12.80;;;9.93;;
31716;SDS011;18301;51.076;17.046;2022-08-19T03:02:43;13.20;;;10.35;;
31716;SDS011;18301;51.076;17.046;2022-08-19T03:07:44;12.82;;;10.20;;
31716;SDS011;18301;51.076;17.046;2022-08-19T03:12:47;12.10;;;9.85;;
31716;SDS011;18301;51.076;17.046;2022-08-19T03:17:49;12.38;;;10.10;;
31716;SDS011;18301;51.076;17.046;2022-08-19T03:22:51;13.68;;;10.50;;
31716;SDS011;18301;51.076;17.046;2022-08-19T03:27:52;14.68;;;10.70;;
31716;SDS011;18301;51.076;17.046;2022-08-19T03:32:54;13.85;;;10.23;;
31716;SDS011;18301;51.076;17.046;2022-08-19T03:38:00;13.85;;;11.25;;
31716;SDS011;18301;51.076;17.046;2022-08-19T03:43:02;16.25;;;10.70;;
31716;SDS011;18301;51.076;17.046;2022-08-19T03:48:04;14.45;;;11.00;;
31716;SDS011;18301;51.076;17.046;2022-08-19T03:53:05;17.20;;;12.02;;
31716;SDS011;18301;51.076;17.046;2022-08-19T03:58:08;15.32;;;11.48;;
31716;SDS011;18301;51.076;17.046;2022-08-19T04:03:12;15.35;;;11.90;;
31716;SDS011;18301;51.076;17.046;2022-08-19T04:08:14;15.70;;;11.45;;
31716;SDS011;18301;51.076;17.046;2022-08-19T04:13:19;14.73;;;11.68;;
31716;SDS011;18301;51.076;17.046;2022-08-19T04:18:20;16.05;;;12.13;;
31716;SDS011;18301;51.076;17.046;2022-08-19T04:23:22;17.10;;;11.15;;
31716;SDS011;18301;51.076;17.046;2022-08-19T04:28:25;17.33;;;12.23;;
31716;SDS011;18301;51.076;17.046;2022-08-19T04:33:27;18.17;;;12.07;;
31716;SDS011;18301;51.076;17.046;2022-08-19T04:38:29;14.57;;;11.85;;
31716;SDS011;18301;51.076;17.046;2022-08-19T04:43:31;18.33;;;12.70;;
31716;SDS011;18301;51.076;17.046;2022-08-19T04:48:34;15.45;;;12.25;;
31716;SDS011;18301;51.076;17.046;2022-08-19T04:53:45;21.23;;;12.93;;
31716;SDS011;18301;51.076;17.046;2022-08-19T04:58:47;19.05;;;13.25;;
31716;SDS011;18301;51.076;17.046;2022-08-19T05:03:49;16.48;;;12.50;;
31716;SDS011;18301;51.076;17.046;2022-08-19T05:08:51;18.23;;;12.40;;
31716;SDS011;18301;51.076;17.046;2022-08-19T05:13:53;16.75;;;12.40;;
31716;SDS011;18301;51.076;17.046;2022-08-19T05:18:55;19.63;;;13.07;;
31716;SDS011;18301;51.076;17.046;2022-08-19T05:24:16;20.35;;;13.75;;
31716;SDS011;18301;51.076;17.046;2022-08-19T05:29:19;16.80;;;12.93;;
31716;SDS011;18301;51.076;17.046;2022-08-19T05:34:23;21.48;;;13.45;;
31716;SDS011;18301;51.076;17.046;2022-08-19T05:39:27;18.13;;;13.35;;
31716;SDS011;18301;51.076;17.046;2022-08-19T05:44:32;17.05;;;13.07;;
31716;SDS011;18301;51.076;17.046;2022-08-19T05:49:37;18.60;;;14.13;;
31716;SDS011;18301;51.076;17.046;2022-08-19T05:54:39;19.95;;;14.63;;
31716;SDS011;18301;51.076;17.046;2022-08-19T05:59:42;18.25;;;14.25;;
31716;SDS011;18301;51.076;17.046;2022-08-19T06:04:46;20.33;;;13.57;;
31716;SDS011;18301;51.076;17.046;2022-08-19T06:09:48;17.95;;;13.35;;
31716;SDS011;18301;51.076;17.046;2022-08-19T06:15:02;21.23;;;14.15;;
31716;SDS011;18301;51.076;17.046;2022-08-19T06:20:08;16.70;;;13.82;;
31716;SDS011;18301;51.076;17.046;2022-08-19T06:25:13;19.70;;;15.10;;
31716;SDS011;18301;51.076;17.046;2022-08-19T06:30:15;16.13;;;13.20;;
31716;SDS011;18301;51.076;17.046;2022-08-19T06:35:17;16.55;;;12.88;;
31716;SDS011;18301;51.076;17.046;2022-08-19T06:40:19;18.42;;;13.90;;
31716;SDS011;18301;51.076;17.046;2022-08-19T06:45:22;21.80;;;13.27;;
31716;SDS011;18301;51.076;17.046;2022-08-19T06:50:35;17.65;;;13.63;;
31716;SDS011;18301;51.076;17.046;2022-08-19T06:55:39;18.02;;;13.40;;
31716;SDS011;18301;51.076;17.046;2022-08-19T07:00:42;17.33;;;12.07;;
31716;SDS011;18301;51.076;17.046;2022-08-19T07:05:44;16.38;;;12.25;;
31716;SDS011;18301;51.076;17.046;2022-08-19T07:10:46;16.42;;;11.82;;
31716;SDS011;18301;51.076;17.046;2022-08-19T07:15:49;16.00;;;12.02;;
31716;SDS011;18301;51.076;17.046;2022-08-19T07:20:51;17.27;;;11.98;;
31716;SDS011;18301;51.076;17.046;2022-08-19T07:26:11;15.93;;;11.48;;
31716;SDS011;18301;51.076;17.046;2022-08-19T07:31:28;15.55;;;11.07;;
31716;SDS011;18301;51.076;17.046;2022-08-19T07:36:31;15.57;;;11.35;;
31716;SDS011;18301;51.076;17.046;2022-08-19T07:41:34;17.25;;;10.90;;
31716;SDS011;18301;51.076;17.046;2022-08-19T07:46:39;14.82;;;10.98;;
31716;SDS011;18301;51.076;17.046;2022-08-19T07:51:43;22.92;;;10.73;;
31716;SDS011;18301;51.076;17.046;2022-08-19T07:56:49;15.15;;;10.63;;
31716;SDS011;18301;51.076;17.046;2022-08-19T08:01:52;17.83;;;11.00;;
31716;SDS011;18301;51.076;17.046;2022-08-19T08:06:55;13.38;;;10.07;;
31716;SDS011;18301;51.076;17.046;2022-08-19T08:12:17;16.48;;;10.80;;
31716;SDS011;18301;51.076;17.046;2022-08-19T08:17:34;15.52;;;10.70;;
31716;SDS011;18301;51.076;17.046;2022-08-19T08:22:51;12.35;;;9.60;;
31716;SDS011;18301;51.076;17.046;2022-08-19T08:28:12;18.85;;;9.93;;
31716;SDS011;18301;51.076;17.046;2022-08-19T08:33:19;11.73;;;9.25;;
31716;SDS011;18301;51.076;17.046;2022-08-19T08:38:35;16.10;;;8.70;;
31716;SDS011;18301;51.076;17.046;2022-08-19T08:43:44;14.73;;;9.38;;
31716;SDS011;18301;51.076;17.046;2022-08-19T08:54:18;13.70;;;8.85;;
31716;SDS011;18301;51.076;17.046;2022-08-19T08:59:24;15.98;;;9.63;;
31716;SDS011;18301;51.076;17.046;2022-08-19T09:04:34;12.32;;;9.20;;
31716;SDS011;18301;51.076;17.046;2022-08-19T09:09:39;11.40;;;9.13;;
31716;SDS011;18301;51.076;17.046;2022-08-19T09:14:45;13.10;;;8.73;;
31716;SDS011;18301;51.076;17.046;2022-08-19T09:25:12;15.32;;;9.77;;
31716;SDS011;18301;51.076;17.046;2022-08-19T09:30:17;11.35;;;8.40;;
31716;SDS011;18301;51.076;17.046;2022-08-19T09:35:26;12.98;;;8.93;;
31716;SDS011;18301;51.076;17.046;2022-08-19T09:40:30;11.02;;;8.60;;
31716;SDS011;18301;51.076;17.046;2022-08-19T09:45:38;12.63;;;8.55;;
31716;SDS011;18301;51.076;17.046;2022-08-19T09:50:40;10.40;;;8.10;;
31716;SDS011;18301;51.076;17.046;2022-08-19T09:55:54;10.93;;;8.45;;
31716;SDS011;18301;51.076;17.046;2022-08-19T10:00:57;10.68;;;7.90;;
31716;SDS011;18301;51.076;17.046;2022-08-19T10:06:00;13.95;;;8.70;;
31716;SDS011;18301;51.076;17.046;2022-08-19T10:11:04;13.15;;;9.13;;
31716;SDS011;18301;51.076;17.046;2022-08-19T10:16:26;14.02;;;8.55;;
31716;SDS011;18301;51.076;17.046;2022-08-19T10:21:31;12.82;;;7.72;;
31716;SDS011;18301;51.076;17.046;2022-08-19T10:26:34;15.48;;;8.23;;
31716;SDS011;18301;51.076;17.046;2022-08-19T10:31:38;13.77;;;8.57;;
31716;SDS011;18301;51.076;17.046;2022-08-19T10:36:59;14.45;;;8.15;;
31716;SDS011;18301;51.076;17.046;2022-08-19T10:42:06;11.73;;;7.63;;
31716;SDS011;18301;51.076;17.046;2022-08-19T10:47:08;14.35;;;8.30;;
31716;SDS011;18301;51.076;17.046;2022-08-19T10:52:25;10.00;;;7.05;;
31716;SDS011;18301;51.076;17.046;2022-08-19T10:57:39;13.00;;;7.85;;
31716;SDS011;18301;51.076;17.046;2022-08-19T11:03:01;10.10;;;6.95;;
31716;SDS011;18301;51.076;17.046;2022-08-19T11:08:03;8.48;;;6.53;;
31716;SDS011;18301;51.076;17.046;2022-08-19T11:13:23;10.25;;;7.45;;
31716;SDS011;18301;51.076;17.046;2022-08-19T11:18:25;8.40;;;6.60;;
31716;SDS011;18301;51.076;17.046;2022-08-19T11:23:27;9.13;;;5.75;;
31716;SDS011;18301;51.076;17.046;2022-08-19T11:28:29;8.82;;;6.45;;
31716;SDS011;18301;51.076;17.046;2022-08-19T11:33:31;8.50;;;5.78;;
31716;SDS011;18301;51.076;17.046;2022-08-19T11:38:34;6.25;;;5.00;;
31716;SDS011;18301;51.076;17.046;2022-08-19T11:43:36;6.30;;;5.18;;
31716;SDS011;18301;51.076;17.046;2022-08-19T11:48:39;6.82;;;5.00;;
31716;SDS011;18301;51.076;17.046;2022-08-19T11:53:41;5.72;;;4.22;;
31716;SDS011;18301;51.076;17.046;2022-08-19T11:58:42;5.35;;;4.50;;
31716;SDS011;18301;51.076;17.046;2022-08-19T12:03:45;5.80;;;4.05;;
31716;SDS011;18301;51.076;17.046;2022-08-19T12:08:48;7.10;;;3.85;;
31716;SDS011;18301;51.076;17.046;2022-08-19T12:13:51;5.13;;;3.53;;
31716;SDS011;18301;51.076;17.046;2022-08-19T12:18:54;11.10;;;4.05;;
31716;SDS011;18301;51.076;17.046;2022-08-19T12:23:57;4.85;;;4.35;;
31716;SDS011;18301;51.076;17.046;2022-08-19T12:29:00;7.63;;;3.90;;
31716;SDS011;18301;51.076;17.046;2022-08-19T12:34:01;7.32;;;4.80;;
31716;SDS011;18301;51.076;17.046;2022-08-19T12:39:04;6.13;;;4.55;;
31716;SDS011;18301;51.076;17.046;2022-08-19T12:44:10;5.55;;;4.13;;
31716;SDS011;18301;51.076;17.046;2022-08-19T12:49:14;8.63;;;4.65;;
31716;SDS011;18301;51.076;17.046;2022-08-19T12:54:37;7.32;;;4.53;;
31716;SDS011;18301;51.076;17.046;2022-08-19T12:59:38;6.18;;;4.70;;
31716;SDS011;18301;51.076;17.046;2022-08-19T13:04:40;9.90;;;3.80;;
31716;SDS011;18301;51.076;17.046;2022-08-19T13:09:42;9.00;;;4.30;;
31716;SDS011;18301;51.076;17.046;2022-08-19T13:14:43;8.18;;;4.10;;
31716;SDS011;18301;51.076;17.046;2022-08-19T13:19:51;10.52;;;4.43;;
31716;SDS011;18301;51.076;17.046;2022-08-19T13:24:53;8.40;;;4.53;;
31716;SDS011;18301;51.076;17.046;2022-08-19T13:29:55;7.03;;;4.25;;
31716;SDS011;18301;51.076;17.046;2022-08-19T13:35:15;8.45;;;4.25;;
31716;SDS011;18301;51.076;17.046;2022-08-19T13:40:23;8.15;;;4.10;;
31716;SDS011;18301;51.076;17.046;2022-08-19T13:45:28;7.35;;;3.90;;
31716;SDS011;18301;51.076;17.046;2022-08-19T13:50:31;7.38;;;4.10;;
31716;SDS011;18301;51.076;17.046;2022-08-19T13:55:32;6.30;;;4.13;;
31716;SDS011;18301;51.076;17.046;2022-08-19T14:00:36;6.35;;;3.92;;
31716;SDS011;18301;51.076;17.046;2022-08-19T14:05:40;4.30;;;3.55;;
31716;SDS011;18301;51.076;17.046;2022-08-19T14:10:42;8.20;;;4.13;;
31716;SDS011;18301;51.076;17.046;2022-08-19T14:15:46;8.52;;;4.45;;
31716;SDS011;18301;51.076;17.046;2022-08-19T14:20:48;7.55;;;3.83;;
31716;SDS011;18301;51.076;17.046;2022-08-19T14:25:50;7.28;;;3.72;;
31716;SDS011;18301;51.076;17.046;2022-08-19T14:30:51;7.70;;;3.95;;
31716;SDS011;18301;51.076;17.046;2022-08-19T14:35:56;9.80;;;4.20;;
31716;SDS011;18301;51.076;17.046;2022-08-19T14:41:07;8.05;;;4.78;;
31716;SDS011;18301;51.076;17.046;2022-08-19T14:46:09;5.75;;;4.57;;
31716;SDS011;18301;51.076;17.046;2022-08-19T14:51:11;7.93;;;4.85;;
31716;SDS011;18301;51.076;17.046;2022-08-19T14:56:15;6.45;;;5.53;;
31716;SDS011;18301;51.076;17.046;2022-08-19T15:01:20;6.50;;;5.10;;
31716;SDS011;18301;51.076;17.046;2022-08-19T15:06:23;6.75;;;5.57;;
31716;SDS011;18301;51.076;17.046;2022-08-19T15:11:26;7.25;;;5.35;;
31716;SDS011;18301;51.076;17.046;2022-08-19T15:16:29;7.22;;;6.25;;
31716;SDS011;18301;51.076;17.046;2022-08-19T15:21:31;13.15;;;8.98;;
31716;SDS011;18301;51.076;17.046;2022-08-19T15:26:33;13.70;;;9.43;;
31716;SDS011;18301;51.076;17.046;2022-08-19T15:31:35;16.45;;;11.45;;
31716;SDS011;18301;51.076;17.046;2022-08-19T15:36:38;13.23;;;11.85;;
31716;SDS011;18301;51.076;17.046;2022-08-19T15:41:40;16.40;;;11.05;;
31716;SDS011;18301;51.076;17.046;2022-08-19T15:46:45;12.50;;;11.20;;
31716;SDS011;18301;51.076;17.046;2022-08-19T15:51:49;14.48;;;11.57;;
31716;SDS011;18301;51.076;17.046;2022-08-19T15:56:53;13.90;;;11.50;;
31716;SDS011;18301;51.076;17.046;2022-08-19T16:02:15;16.85;;;13.13;;
31716;SDS011;18301;51.076;17.046;2022-08-19T16:07:37;19.20;;;15.15;;
31716;SDS011;18301;51.076;17.046;2022-08-19T16:12:39;19.80;;;14.20;;
31716;SDS011;18301;51.076;17.046;2022-08-19T16:17:41;16.92;;;15.07;;
31716;SDS011;18301;51.076;17.046;2022-08-19T16:22:57;20.48;;;16.73;;
31716;SDS011;18301;51.076;17.046;2022-08-19T16:27:59;17.05;;;14.70;;
31716;SDS011;18301;51.076;17.046;2022-08-19T16:33:08;24.10;;;14.95;;
31716;SDS011;18301;51.076;17.046;2022-08-19T16:38:10;19.80;;;15.73;;
31716;SDS011;18301;51.076;17.046;2022-08-19T16:43:12;17.88;;;14.95;;
31716;SDS011;18301;51.076;17.046;2022-08-19T16:48:13;16.65;;;14.90;;
31716;SDS011;18301;51.076;17.046;2022-08-19T16:53:16;29.02;;;14.90;;
31716;SDS011;18301;51.076;17.046;2022-08-19T16:58:19;16.30;;;14.13;;
31716;SDS011;18301;51.076;17.046;2022-08-19T17:03:28;16.63;;;13.95;;
31716;SDS011;18301;51.076;17.046;2022-08-19T17:08:36;15.63;;;13.73;;
31716;SDS011;18301;51.076;17.046;2022-08-19T17:13:37;18.92;;;13.77;;
31716;SDS011;18301;51.076;17.046;2022-08-19T17:18:39;23.48;;;14.23;;
31716;SDS011;18301;51.076;17.046;2022-08-19T17:23:41;18.88;;;14.35;;
31716;SDS011;18301;51.076;17.046;2022-08-19T17:28:48;20.45;;;14.95;;
31716;SDS011;18301;51.076;17.046;2022-08-19T17:33:51;19.23;;;14.30;;
31716;SDS011;18301;51.076;17.046;2022-08-19T17:38:56;15.65;;;13.73;;
31716;SDS011;18301;51.076;17.046;2022-08-19T17:44:01;20.35;;;14.15;;
31716;SDS011;18301;51.076;17.046;2022-08-19T17:49:03;18.50;;;14.45;;
31716;SDS011;18301;51.076;17.046;2022-08-19T17:54:05;16.05;;;13.02;;
31716;SDS011;18301;51.076;17.046;2022-08-19T17:59:16;20.35;;;13.88;;
31716;SDS011;18301;51.076;17.046;2022-08-19T18:04:17;15.05;;;13.35;;
31716;SDS011;18301;51.076;17.046;2022-08-19T18:09:23;17.35;;;13.80;;
31716;SDS011;18301;51.076;17.046;2022-08-19T18:14:42;18.65;;;13.48;;
31716;SDS011;18301;51.076;17.046;2022-08-19T18:19:45;17.77;;;13.90;;
31716;SDS011;18301;51.076;17.046;2022-08-19T18:24:47;15.25;;;12.82;;
31716;SDS011;18301;51.076;17.046;2022-08-19T18:29:49;18.08;;;13.63;;
31716;SDS011;18301;51.076;17.046;2022-08-19T18:34:51;17.48;;;13.90;;
31716;SDS011;18301;51.076;17.046;2022-08-19T18:39:53;20.67;;;14.23;;
31716;SDS011;18301;51.076;17.046;2022-08-19T18:45:14;16.13;;;13.98;;
31716;SDS011;18301;51.076;17.046;2022-08-19T18:50:34;20.42;;;14.48;;
31716;SDS011;18301;51.076;17.046;2022-08-19T18:55:37;17.05;;;13.88;;
31716;SDS011;18301;51.076;17.046;2022-08-19T19:00:39;16.67;;;13.95;;
31716;SDS011;18301;51.076;17.046;2022-08-19T19:05:42;17.83;;;14.32;;
31716;SDS011;18301;51.076;17.046;2022-08-19T19:10:44;20.67;;;15.50;;
31716;SDS011;18301;51.076;17.046;2022-08-19T19:15:47;22.40;;;14.85;;
31716;SDS011;18301;51.076;17.046;2022-08-19T19:20:48;18.13;;;14.93;;
31716;SDS011;18301;51.076;17.046;2022-08-19T19:25:50;22.30;;;15.18;;
31716;SDS011;18301;51.076;17.046;2022-08-19T19:30:52;24.95;;;15.65;;
31716;SDS011;18301;51.076;17.046;2022-08-19T19:35:58;22.08;;;15.75;;
31716;SDS011;18301;51.076;17.046;2022-08-19T19:41:00;20.48;;;15.15;;
31716;SDS011;18301;51.076;17.046;2022-08-19T19:46:02;19.13;;;15.27;;
31716;SDS011;18301;51.076;17.046;2022-08-19T19:51:07;19.73;;;14.38;;
31716;SDS011;18301;51.076;17.046;2022-08-19T19:56:10;15.10;;;10.40;;
31716;SDS011;18301;51.076;17.046;2022-08-19T20:01:13;11.40;;;9.10;;
31716;SDS011;18301;51.076;17.046;2022-08-19T20:06:24;12.07;;;8.55;;
31716;SDS011;18301;51.076;17.046;2022-08-19T20:11:42;18.98;;;9.25;;
31716;SDS011;18301;51.076;17.046;2022-08-19T20:16:47;14.80;;;8.98;;
31716;SDS011;18301;51.076;17.046;2022-08-19T20:21:50;16.90;;;8.95;;
31716;SDS011;18301;51.076;17.046;2022-08-19T20:26:52;13.10;;;8.38;;
31716;SDS011;18301;51.076;17.046;2022-08-19T20:31:54;15.90;;;8.82;;
31716;SDS011;18301;51.076;17.046;2022-08-19T20:36:59;11.50;;;7.50;;
31716;SDS011;18301;51.076;17.046;2022-08-19T20:42:01;11.48;;;6.75;;
31716;SDS011;18301;51.076;17.046;2022-08-19T20:47:02;17.70;;;7.00;;
31716;SDS011;18301;51.076;17.046;2022-08-19T20:52:04;14.15;;;6.80;;
31716;SDS011;18301;51.076;17.046;2022-08-19T20:57:06;10.23;;;6.70;;
31716;SDS011;18301;51.076;17.046;2022-08-19T21:02:09;11.25;;;7.75;;
31716;SDS011;18301;51.076;17.046;2022-08-19T21:07:11;15.98;;;7.60;;
31716;SDS011;18301;51.076;17.046;2022-08-19T21:12:13;11.45;;;7.78;;
31716;SDS011;18301;51.076;17.046;2022-08-19T21:17:14;13.02;;;7.50;;
31716;SDS011;18301;51.076;17.046;2022-08-19T21:22:16;12.15;;;6.95;;
31716;SDS011;18301;51.076;17.046;2022-08-19T21:27:17;16.48;;;7.15;;
31716;SDS011;18301;51.076;17.046;2022-08-19T21:32:19;15.75;;;6.60;;
31716;SDS011;18301;51.076;17.046;2022-08-19T21:37:21;11.10;;;6.50;;
31716;SDS011;18301;51.076;17.046;2022-08-19T21:42:26;14.23;;;7.07;;
31716;SDS011;18301;51.076;17.046;2022-08-19T21:47:27;10.52;;;5.90;;
31716;SDS011;18301;51.076;17.046;2022-08-19T21:52:29;10.63;;;6.38;;
31716;SDS011;18301;51.076;17.046;2022-08-19T21:57:31;10.75;;;5.85;;
31716;SDS011;18301;51.076;17.046;2022-08-19T22:02:32;12.85;;;6.25;;
31716;SDS011;18301;51.076;17.046;2022-08-19T22:07:34;14.05;;;6.38;;
31716;SDS011;18301;51.076;17.046;2022-08-19T22:12:37;12.68;;;5.97;;
31716;SDS011;18301;51.076;17.046;2022-08-19T22:17:51;12.45;;;6.38;;
31716;SDS011;18301;51.076;17.046;2022-08-19T22:22:55;10.15;;;5.90;;
31716;SDS011;18301;51.076;17.046;2022-08-19T22:28:00;12.50;;;6.35;;
31716;SDS011;18301;51.076;17.046;2022-08-19T22:33:04;12.98;;;5.88;;
31716;SDS011;18301;51.076;17.046;2022-08-19T22:38:09;12.40;;;6.72;;
31716;SDS011;18301;51.076;17.046;2022-08-19T22:43:14;12.10;;;6.50;;
31716;SDS011;18301;51.076;17.046;2022-08-19T22:48:19;11.60;;;6.10;;
31716;SDS011;18301;51.076;17.046;2022-08-19T22:53:22;11.48;;;6.25;;
31716;SDS011;18301;51.076;17.046;2022-08-19T22:58:24;10.90;;;6.25;;
31716;SDS011;18301;51.076;17.046;2022-08-19T23:03:28;9.27;;;5.95;;
31716;SDS011;18301;51.076;17.046;2022-08-19T23:08:30;15.18;;;6.80;;
31716;SDS011;18301;51.076;17.046;2022-08-19T23:13:31;12.57;;;7.35;;
31716;SDS011;18301;51.076;17.046;2022-08-19T23:18:33;15.25;;;7.32;;
31716;SDS011;18301;51.076;17.046;2022-08-19T23:23:36;11.63;;;6.82;;
31716;SDS011;18301;51.076;17.046;2022-08-19T23:28:39;13.93;;;6.85;;
31716;SDS011;18301;51.076;17.046;2022-08-19T23:33:59;12.98;;;7.10;;
31716;SDS011;18301;51.076;17.046;2022-08-19T23:39:01;13.10;;;7.35;;
31716;SDS011;18301;51.076;17.046;2022-08-19T23:44:03;15.00;;;7.90;;
31716;SDS011;18301;51.076;17.046;2022-08-19T23:49:14;11.00;;;7.18;;
31716;SDS011;18301;51.076;17.046;2022-08-19T23:54:16;10.55;;;7.25;;
31716;SDS011;18301;51.076;17.046;2022-08-19T23:59:17;16.13;;;7.40;;
